sensor_id;sensor_type;location;lat;lon;timestamp;pressure;altitude;pressure_sealevel;temperature;humidity
34658;BME280;20865;43.312;27.152;2023-04-09T00:01:24;101004.36;;;12.90;44.13
34658;BME280;20865;43.312;27.152;2023-04-09T00:03:51;101003.09;;;12.87;44.24
34658;BME280;20865;43.312;27.152;2023-04-09T00:06:18;101007.06;;;12.88;44.20
34658;BME280;20865;43.312;27.152;2023-04-09T00:08:44;101005.80;;;12.85;44.24
34658;BME280;20865;43.312;27.152;2023-04-09T00:11:11;101002.31;;;12.83;44.20
34658;BME280;20865;43.312;27.152;2023-04-09T00:13:38;101007.67;;;12.83;44.09
34658;BME280;20865;43.312;27.152;2023-04-09T00:16:05;101017.41;;;12.86;43.69
34658;BME280;20865;43.312;27.152;2023-04-09T00:18:32;101011.31;;;12.81;43.43
34658;BME280;20865;43.312;27.152;2023-04-09T00:21:00;101018.16;;;12.76;44.06
34658;BME280;20865;43.312;27.152;2023-04-09T00:23:26;101013.74;;;12.74;44.00
34658;BME280;20865;43.312;27.152;2023-04-09T00:25:53;101020.86;;;12.75;43.00
34658;BME280;20865;43.312;27.152;2023-04-09T00:28:20;101017.79;;;12.72;42.98
34658;BME280;20865;43.312;27.152;2023-04-09T00:30:47;101022.41;;;12.67;43.76
34658;BME280;20865;43.312;27.152;2023-04-09T00:33:14;101023.83;;;12.64;43.99
34658;BME280;20865;43.312;27.152;2023-04-09T00:35:40;101019.48;;;12.60;42.99
34658;BME280;20865;43.312;27.152;2023-04-09T00:38:07;101018.22;;;12.57;42.90
34658;BME280;20865;43.312;27.152;2023-04-09T00:40:34;101013.95;;;12.50;42.46
34658;BME280;20865;43.312;27.152;2023-04-09T00:43:01;101008.80;;;12.42;43.39
34658;BME280;20865;43.312;27.152;2023-04-09T00:45:27;101009.49;;;12.32;43.54
34658;BME280;20865;43.312;27.152;2023-04-09T00:47:54;101012.77;;;12.27;43.49
34658;BME280;20865;43.312;27.152;2023-04-09T00:50:21;101019.54;;;12.24;43.47
34658;BME280;20865;43.312;27.152;2023-04-09T00:52:48;101008.98;;;12.16;43.37
34658;BME280;20865;43.312;27.152;2023-04-09T00:55:14;101012.58;;;12.17;43.58
34658;BME280;20865;43.312;27.152;2023-04-09T00:57:42;101010.70;;;12.21;43.64
34658;BME280;20865;43.312;27.152;2023-04-09T01:00:09;101010.77;;;12.18;43.88
34658;BME280;20865;43.312;27.152;2023-04-09T01:02:37;101008.44;;;12.22;44.00
34658;BME280;20865;43.312;27.152;2023-04-09T01:05:04;101005.88;;;12.17;43.89
34658;BME280;20865;43.312;27.152;2023-04-09T01:07:49;101002.34;;;12.15;43.11
34658;BME280;20865;43.312;27.152;2023-04-09T01:15:28;100998.55;;;12.06;44.74
34658;BME280;20865;43.312;27.152;2023-04-09T01:25:43;101010.60;;;12.06;43.47
34658;BME280;20865;43.312;27.152;2023-04-09T01:28:22;101017.81;;;12.04;43.72
34658;BME280;20865;43.312;27.152;2023-04-09T01:30:49;101015.94;;;12.07;44.19
34658;BME280;20865;43.312;27.152;2023-04-09T01:33:16;101019.89;;;12.10;44.29
34658;BME280;20865;43.312;27.152;2023-04-09T01:35:45;101009.78;;;12.04;44.52
34658;BME280;20865;43.312;27.152;2023-04-09T01:38:12;101011.05;;;12.07;44.91
34658;BME280;20865;43.312;27.152;2023-04-09T01:40:40;101017.23;;;12.09;45.17
34658;BME280;20865;43.312;27.152;2023-04-09T01:43:08;101013.86;;;12.19;44.32
34658;BME280;20865;43.312;27.152;2023-04-09T01:45:36;101009.23;;;12.25;43.99
34658;BME280;20865;43.312;27.152;2023-04-09T01:48:03;101005.88;;;12.17;44.26
34658;BME280;20865;43.312;27.152;2023-04-09T01:50:31;101007.56;;;12.21;44.08
34658;BME280;20865;43.312;27.152;2023-04-09T01:52:59;101006.70;;;12.19;44.04
34658;BME280;20865;43.312;27.152;2023-04-09T01:55:26;101017.49;;;12.16;43.98
34658;BME280;20865;43.312;27.152;2023-04-09T01:57:53;101013.92;;;12.17;44.05
34658;BME280;20865;43.312;27.152;2023-04-09T02:00:20;101011.21;;;11.99;44.40
34658;BME280;20865;43.312;27.152;2023-04-09T02:03:05;101007.25;;;11.98;44.63
34658;BME280;20865;43.312;27.152;2023-04-09T02:05:31;101006.91;;;11.94;44.83
34658;BME280;20865;43.312;27.152;2023-04-09T02:07:59;101010.52;;;11.93;44.88
34658;BME280;20865;43.312;27.152;2023-04-09T02:10:27;101011.11;;;11.86;45.17
34658;BME280;20865;43.312;27.152;2023-04-09T02:12:56;101012.51;;;11.81;45.15
34658;BME280;20865;43.312;27.152;2023-04-09T02:15:23;101013.81;;;11.84;45.38
34658;BME280;20865;43.312;27.152;2023-04-09T02:17:52;101012.94;;;11.84;45.46
34658;BME280;20865;43.312;27.152;2023-04-09T02:20:18;101016.90;;;11.85;45.51
34658;BME280;20865;43.312;27.152;2023-04-09T02:22:46;101015.13;;;11.86;45.64
34658;BME280;20865;43.312;27.152;2023-04-09T02:25:13;101006.12;;;11.88;45.71
34658;BME280;20865;43.312;27.152;2023-04-09T02:27:40;101004.71;;;11.91;45.82
34658;BME280;20865;43.312;27.152;2023-04-09T02:30:07;101005.64;;;11.90;45.94
34658;BME280;20865;43.312;27.152;2023-04-09T02:32:34;101006.52;;;11.91;46.12
34658;BME280;20865;43.312;27.152;2023-04-09T02:35:01;101015.95;;;11.88;46.32
34658;BME280;20865;43.312;27.152;2023-04-09T02:37:28;101015.61;;;11.84;46.52
34658;BME280;20865;43.312;27.152;2023-04-09T02:39:55;101006.12;;;11.88;46.79
34658;BME280;20865;43.312;27.152;2023-04-09T02:42:21;101013.19;;;11.93;46.80
34658;BME280;20865;43.312;27.152;2023-04-09T02:44:48;101015.08;;;11.87;47.02
34658;BME280;20865;43.312;27.152;2023-04-09T02:47:15;101009.48;;;11.77;47.38
34658;BME280;20865;43.312;27.152;2023-04-09T02:49:42;101009.56;;;11.74;47.68
34658;BME280;20865;43.312;27.152;2023-04-09T02:52:09;101014.84;;;11.77;47.52
34658;BME280;20865;43.312;27.152;2023-04-09T02:54:36;101003.80;;;11.73;47.76
34658;BME280;20865;43.312;27.152;2023-04-09T02:57:02;101021.30;;;11.89;47.48
34658;BME280;20865;43.312;27.152;2023-04-09T02:59:29;101010.58;;;11.89;47.40
34658;BME280;20865;43.312;27.152;2023-04-09T03:01:57;101014.08;;;11.91;47.36
34658;BME280;20865;43.312;27.152;2023-04-09T03:04:24;101011.73;;;11.97;47.18
34658;BME280;20865;43.312;27.152;2023-04-09T03:06:51;101008.19;;;11.95;47.39
34658;BME280;20865;43.312;27.152;2023-04-09T03:09:18;101012.55;;;11.99;47.42
34658;BME280;20865;43.312;27.152;2023-04-09T03:11:45;101002.35;;;11.97;47.29
34658;BME280;20865;43.312;27.152;2023-04-09T03:14:11;101006.32;;;11.99;47.09
34658;BME280;20865;43.312;27.152;2023-04-09T03:16:38;101009.44;;;12.00;47.01
34658;BME280;20865;43.312;27.152;2023-04-09T03:19:05;101009.05;;;11.97;46.86
34658;BME280;20865;43.312;27.152;2023-04-09T03:21:32;101008.53;;;11.99;46.64
34658;BME280;20865;43.312;27.152;2023-04-09T03:23:58;101007.66;;;11.99;46.60
34658;BME280;20865;43.312;27.152;2023-04-09T03:26:26;101011.27;;;11.98;46.69
34658;BME280;20865;43.312;27.152;2023-04-09T03:28:53;101016.56;;;11.99;46.77
34658;BME280;20865;43.312;27.152;2023-04-09T03:31:20;101023.27;;;11.99;46.76
34658;BME280;20865;43.312;27.152;2023-04-09T03:33:47;101016.14;;;12.00;46.69
34658;BME280;20865;43.312;27.152;2023-04-09T03:36:13;101021.52;;;11.98;46.93
34658;BME280;20865;43.312;27.152;2023-04-09T03:38:40;101019.22;;;12.01;47.01
34658;BME280;20865;43.312;27.152;2023-04-09T03:41:07;101020.50;;;12.04;47.00
34658;BME280;20865;43.312;27.152;2023-04-09T03:43:34;101025.33;;;12.06;47.17
34658;BME280;20865;43.312;27.152;2023-04-09T03:46:01;101020.85;;;12.06;47.24
34658;BME280;20865;43.312;27.152;2023-04-09T03:48:28;101024.31;;;12.11;47.26
34658;BME280;20865;43.312;27.152;2023-04-09T03:50:54;101025.24;;;12.10;47.30
34658;BME280;20865;43.312;27.152;2023-04-09T03:53:21;101028.67;;;12.15;47.18
34658;BME280;20865;43.312;27.152;2023-04-09T03:55:48;101029.47;;;12.19;47.30
34658;BME280;20865;43.312;27.152;2023-04-09T03:58:15;101028.55;;;12.20;47.40
34658;BME280;20865;43.312;27.152;2023-04-09T04:00:41;101034.27;;;12.24;47.38
34658;BME280;20865;43.312;27.152;2023-04-09T04:03:10;101034.06;;;12.32;47.21
34658;BME280;20865;43.312;27.152;2023-04-09T04:05:38;101026.52;;;12.30;47.42
34658;BME280;20865;43.312;27.152;2023-04-09T04:08:05;101030.52;;;12.31;47.46
34658;BME280;20865;43.312;27.152;2023-04-09T04:10:32;101025.98;;;12.33;47.51
34658;BME280;20865;43.312;27.152;2023-04-09T04:12:59;101033.48;;;12.37;47.49
34658;BME280;20865;43.312;27.152;2023-04-09T04:15:27;101025.70;;;12.44;47.48
34658;BME280;20865;43.312;27.152;2023-04-09T04:17:54;101025.75;;;12.43;47.56
34658;BME280;20865;43.312;27.152;2023-04-09T04:20:20;101024.82;;;12.44;47.53
34658;BME280;20865;43.312;27.152;2023-04-09T04:22:47;101030.88;;;12.52;47.52
34658;BME280;20865;43.312;27.152;2023-04-09T04:25:14;101032.42;;;12.60;47.35
34658;BME280;20865;43.312;27.152;2023-04-09T04:27:41;101025.25;;;12.61;47.45
34658;BME280;20865;43.312;27.152;2023-04-09T04:30:08;101032.27;;;12.67;47.36
34658;BME280;20865;43.312;27.152;2023-04-09T04:32:35;101033.08;;;12.69;47.45
34658;BME280;20865;43.312;27.152;2023-04-09T04:35:02;101027.77;;;12.67;47.57
34658;BME280;20865;43.312;27.152;2023-04-09T04:37:28;101029.45;;;12.71;47.62
34658;BME280;20865;43.312;27.152;2023-04-09T04:39:55;101033.00;;;12.72;47.57
34658;BME280;20865;43.312;27.152;2023-04-09T04:42:22;101031.58;;;12.75;47.77
34658;BME280;20865;43.312;27.152;2023-04-09T04:44:49;101030.08;;;12.81;47.70
34658;BME280;20865;43.312;27.152;2023-04-09T04:47:16;101023.23;;;12.85;47.69
34658;BME280;20865;43.312;27.152;2023-04-09T04:49:44;101030.34;;;12.86;47.73
34658;BME280;20865;43.312;27.152;2023-04-09T04:52:10;101031.61;;;12.90;47.82
34658;BME280;20865;43.312;27.152;2023-04-09T04:54:37;101031.85;;;12.97;47.88
34658;BME280;20865;43.312;27.152;2023-04-09T04:57:05;101026.32;;;13.03;47.88
34658;BME280;20865;43.312;27.152;2023-04-09T04:59:32;101033.79;;;13.08;48.07
34658;BME280;20865;43.312;27.152;2023-04-09T05:01:59;101047.06;;;13.13;48.03
34658;BME280;20865;43.312;27.152;2023-04-09T05:04:27;101044.23;;;13.17;48.20
34658;BME280;20865;43.312;27.152;2023-04-09T05:06:54;101045.08;;;13.19;48.17
34658;BME280;20865;43.312;27.152;2023-04-09T05:09:21;101046.75;;;13.23;48.41
34658;BME280;20865;43.312;27.152;2023-04-09T05:11:47;101050.11;;;13.31;48.37
34658;BME280;20865;43.312;27.152;2023-04-09T05:14:14;101052.70;;;13.34;48.38
34658;BME280;20865;43.312;27.152;2023-04-09T05:16:41;101046.75;;;13.40;48.19
34658;BME280;20865;43.312;27.152;2023-04-09T05:19:08;101046.14;;;13.45;48.28
34658;BME280;20865;43.312;27.152;2023-04-09T05:21:35;101048.51;;;13.70;47.80
34658;BME280;20865;43.312;27.152;2023-04-09T05:24:01;101048.36;;;13.75;47.89
34658;BME280;20865;43.312;27.152;2023-04-09T05:26:28;101051.35;;;13.79;48.19
34658;BME280;20865;43.312;27.152;2023-04-09T05:28:55;101047.26;;;13.67;48.79
34658;BME280;20865;43.312;27.152;2023-04-09T05:31:22;101048.29;;;13.76;48.81
34658;BME280;20865;43.312;27.152;2023-04-09T05:33:49;101052.97;;;13.70;48.96
34658;BME280;20865;43.312;27.152;2023-04-09T05:36:16;101060.75;;;13.79;49.05
34658;BME280;20865;43.312;27.152;2023-04-09T05:38:44;101053.41;;;13.84;48.92
34658;BME280;20865;43.312;27.152;2023-04-09T05:41:11;101057.28;;;13.75;49.05
34658;BME280;20865;43.312;27.152;2023-04-09T05:43:38;101061.22;;;13.78;49.08
34658;BME280;20865;43.312;27.152;2023-04-09T05:46:05;101053.03;;;13.68;49.40
34658;BME280;20865;43.312;27.152;2023-04-09T05:48:34;101052.63;;;13.80;49.24
34658;BME280;20865;43.312;27.152;2023-04-09T05:51:01;101058.13;;;13.91;49.10
34658;BME280;20865;43.312;27.152;2023-04-09T05:53:28;101064.41;;;13.91;49.19
34658;BME280;20865;43.312;27.152;2023-04-09T05:55:56;101057.91;;;13.98;49.07
34658;BME280;20865;43.312;27.152;2023-04-09T05:58:22;101058.91;;;14.09;48.95
34658;BME280;20865;43.312;27.152;2023-04-09T06:00:49;101052.53;;;14.12;49.01
34658;BME280;20865;43.312;27.152;2023-04-09T06:03:17;101058.58;;;14.18;48.90
34658;BME280;20865;43.312;27.152;2023-04-09T06:05:44;101054.29;;;14.26;48.80
34658;BME280;20865;43.312;27.152;2023-04-09T06:08:11;101053.69;;;14.31;48.55
34658;BME280;20865;43.312;27.152;2023-04-09T06:10:38;101053.13;;;14.35;48.53
34658;BME280;20865;43.312;27.152;2023-04-09T06:13:05;101056.84;;;14.44;48.54
34658;BME280;20865;43.312;27.152;2023-04-09T06:15:32;101058.36;;;14.52;48.17
34658;BME280;20865;43.312;27.152;2023-04-09T06:17:59;101058.48;;;14.74;47.64
34658;BME280;20865;43.312;27.152;2023-04-09T06:20:26;101051.16;;;14.91;47.26
34658;BME280;20865;43.312;27.152;2023-04-09T06:22:53;101056.22;;;15.12;47.33
34658;BME280;20865;43.312;27.152;2023-04-09T06:25:19;101058.18;;;15.32;47.55
34658;BME280;20865;43.312;27.152;2023-04-09T06:27:46;101058.60;;;15.45;46.31
34658;BME280;20865;43.312;27.152;2023-04-09T06:30:13;101062.04;;;15.60;46.26
34658;BME280;20865;43.312;27.152;2023-04-09T06:32:42;101057.02;;;15.75;45.96
34658;BME280;20865;43.312;27.152;2023-04-09T06:35:10;101067.05;;;15.93;45.38
34658;BME280;20865;43.312;27.152;2023-04-09T06:37:38;101062.29;;;16.11;45.74
34658;BME280;20865;43.312;27.152;2023-04-09T06:40:05;101070.48;;;16.30;45.32
34658;BME280;20865;43.312;27.152;2023-04-09T06:42:32;101067.97;;;16.58;46.09
34658;BME280;20865;43.312;27.152;2023-04-09T06:44:59;101060.10;;;16.84;45.23
34658;BME280;20865;43.312;27.152;2023-04-09T06:47:27;101059.28;;;17.52;44.16
34658;BME280;20865;43.312;27.152;2023-04-09T06:49:55;101063.91;;;18.15;42.06
34658;BME280;20865;43.312;27.152;2023-04-09T06:52:22;101060.45;;;18.48;40.75
34658;BME280;20865;43.312;27.152;2023-04-09T06:54:49;101063.77;;;18.80;40.91
34658;BME280;20865;43.312;27.152;2023-04-09T06:57:16;101061.67;;;19.03;41.04
34658;BME280;20865;43.312;27.152;2023-04-09T06:59:43;101061.58;;;19.22;39.87
34658;BME280;20865;43.312;27.152;2023-04-09T07:02:10;101058.34;;;19.56;39.45
34658;BME280;20865;43.312;27.152;2023-04-09T07:04:36;101057.96;;;19.55;39.50
34658;BME280;20865;43.312;27.152;2023-04-09T07:07:03;101059.16;;;19.58;38.41
34658;BME280;20865;43.312;27.152;2023-04-09T07:09:30;101056.66;;;19.62;37.83
34658;BME280;20865;43.312;27.152;2023-04-09T07:11:57;101055.17;;;19.65;37.66
34658;BME280;20865;43.312;27.152;2023-04-09T07:14:24;101052.69;;;19.60;37.47
34658;BME280;20865;43.312;27.152;2023-04-09T07:16:50;101047.06;;;19.81;38.38
34658;BME280;20865;43.312;27.152;2023-04-09T07:19:17;101052.00;;;19.81;37.33
34658;BME280;20865;43.312;27.152;2023-04-09T07:21:44;101056.26;;;20.01;36.79
34658;BME280;20865;43.312;27.152;2023-04-09T07:24:11;101056.67;;;20.25;36.48
34658;BME280;20865;43.312;27.152;2023-04-09T07:26:38;101055.52;;;20.45;36.47
34658;BME280;20865;43.312;27.152;2023-04-09T07:29:04;101054.83;;;21.23;35.37
34658;BME280;20865;43.312;27.152;2023-04-09T07:31:32;101047.30;;;21.50;35.11
34658;BME280;20865;43.312;27.152;2023-04-09T07:33:59;101043.00;;;21.74;34.22
34658;BME280;20865;43.312;27.152;2023-04-09T07:36:26;101052.80;;;21.84;33.73
34658;BME280;20865;43.312;27.152;2023-04-09T07:38:53;101041.68;;;22.01;33.38
34658;BME280;20865;43.312;27.152;2023-04-09T07:41:20;101038.62;;;22.13;32.88
34658;BME280;20865;43.312;27.152;2023-04-09T07:43:47;101038.71;;;22.26;32.81
34658;BME280;20865;43.312;27.152;2023-04-09T07:46:18;101031.55;;;22.38;33.31
34658;BME280;20865;43.312;27.152;2023-04-09T07:48:45;101034.52;;;22.27;31.58
34658;BME280;20865;43.312;27.152;2023-04-09T07:51:14;101034.45;;;22.42;31.74
34658;BME280;20865;43.312;27.152;2023-04-09T07:53:41;101033.34;;;22.51;32.87
34658;BME280;20865;43.312;27.152;2023-04-09T07:56:07;101033.37;;;22.64;31.80
34658;BME280;20865;43.312;27.152;2023-04-09T07:58:35;101034.49;;;22.54;31.81
34658;BME280;20865;43.312;27.152;2023-04-09T08:01:03;101033.66;;;22.67;31.79
34658;BME280;20865;43.312;27.152;2023-04-09T08:03:30;101033.49;;;22.43;30.52
34658;BME280;20865;43.312;27.152;2023-04-09T08:05:56;101037.37;;;22.46;29.79
34658;BME280;20865;43.312;27.152;2023-04-09T08:08:23;101038.02;;;21.88;30.51
34658;BME280;20865;43.312;27.152;2023-04-09T08:10:50;101040.54;;;21.91;32.06
34658;BME280;20865;43.312;27.152;2023-04-09T08:13:17;101035.42;;;21.65;30.19
34658;BME280;20865;43.312;27.152;2023-04-09T08:15:43;101032.72;;;21.79;30.54
34658;BME280;20865;43.312;27.152;2023-04-09T08:18:11;101034.47;;;21.73;30.51
34658;BME280;20865;43.312;27.152;2023-04-09T08:20:38;101031.27;;;21.67;31.18
34658;BME280;20865;43.312;27.152;2023-04-09T08:23:06;101038.82;;;21.83;31.98
34658;BME280;20865;43.312;27.152;2023-04-09T08:25:33;101038.78;;;21.97;31.54
34658;BME280;20865;43.312;27.152;2023-04-09T08:28:00;101035.25;;;22.02;31.12
34658;BME280;20865;43.312;27.152;2023-04-09T08:30:27;101032.98;;;22.23;30.18
34658;BME280;20865;43.312;27.152;2023-04-09T08:32:53;101025.28;;;22.30;30.29
34658;BME280;20865;43.312;27.152;2023-04-09T08:35:20;101031.13;;;22.24;30.80
34658;BME280;20865;43.312;27.152;2023-04-09T08:37:47;101033.13;;;22.34;30.44
34658;BME280;20865;43.312;27.152;2023-04-09T08:40:14;101024.55;;;22.06;29.71
34658;BME280;20865;43.312;27.152;2023-04-09T08:42:46;101023.48;;;22.16;29.81
34658;BME280;20865;43.312;27.152;2023-04-09T08:45:11;101023.05;;;22.29;28.99
34658;BME280;20865;43.312;27.152;2023-04-09T08:47:39;101023.05;;;22.29;29.48
34658;BME280;20865;43.312;27.152;2023-04-09T08:50:07;101025.45;;;22.54;30.34
34658;BME280;20865;43.312;27.152;2023-04-09T08:52:34;101016.21;;;22.69;28.05
34658;BME280;20865;43.312;27.152;2023-04-09T08:55:01;101005.58;;;22.59;26.88
34658;BME280;20865;43.312;27.152;2023-04-09T08:57:28;101010.80;;;22.82;26.72
34658;BME280;20865;43.312;27.152;2023-04-09T08:59:55;101008.16;;;23.00;25.97
34658;BME280;20865;43.312;27.152;2023-04-09T09:02:24;101000.98;;;22.79;24.77
34658;BME280;20865;43.312;27.152;2023-04-09T09:04:51;101007.15;;;22.89;25.18
34658;BME280;20865;43.312;27.152;2023-04-09T09:07:19;101004.23;;;23.04;25.16
34658;BME280;20865;43.312;27.152;2023-04-09T09:09:54;101004.66;;;23.11;25.73
34658;BME280;20865;43.312;27.152;2023-04-09T09:12:29;101003.09;;;23.27;26.07
34658;BME280;20865;43.312;27.152;2023-04-09T09:14:56;100993.89;;;23.10;23.90
34658;BME280;20865;43.312;27.152;2023-04-09T09:17:23;101001.96;;;22.98;24.07
34658;BME280;20865;43.312;27.152;2023-04-09T09:19:51;100999.43;;;23.08;24.69
34658;BME280;20865;43.312;27.152;2023-04-09T09:22:17;100998.38;;;23.29;25.44
34658;BME280;20865;43.312;27.152;2023-04-09T09:24:45;101001.66;;;23.21;25.26
34658;BME280;20865;43.312;27.152;2023-04-09T09:27:30;101003.58;;;23.14;24.91
34658;BME280;20865;43.312;27.152;2023-04-09T09:30:00;101014.17;;;23.05;22.46
34658;BME280;20865;43.312;27.152;2023-04-09T09:32:26;101003.20;;;23.00;22.73
34658;BME280;20865;43.312;27.152;2023-04-09T09:35:04;101001.47;;;22.99;22.63
34658;BME280;20865;43.312;27.152;2023-04-09T09:37:25;100993.23;;;23.06;22.87
34658;BME280;20865;43.312;27.152;2023-04-09T09:39:53;100998.19;;;23.19;24.00
34658;BME280;20865;43.312;27.152;2023-04-09T09:42:20;100992.12;;;23.34;24.49
34658;BME280;20865;43.312;27.152;2023-04-09T09:44:47;100992.52;;;23.10;23.54
34658;BME280;20865;43.312;27.152;2023-04-09T09:47:13;100988.38;;;23.04;23.92
34658;BME280;20865;43.312;27.152;2023-04-09T09:49:42;100984.75;;;23.29;23.44
34658;BME280;20865;43.312;27.152;2023-04-09T09:52:09;100982.98;;;22.97;23.68
34658;BME280;20865;43.312;27.152;2023-04-09T09:54:39;100979.27;;;23.36;23.99
34658;BME280;20865;43.312;27.152;2023-04-09T09:57:08;100984.12;;;23.00;24.45
34658;BME280;20865;43.312;27.152;2023-04-09T09:59:46;100987.08;;;23.22;24.59
34658;BME280;20865;43.312;27.152;2023-04-09T10:02:12;100976.04;;;23.37;25.28
34658;BME280;20865;43.312;27.152;2023-04-09T10:04:37;100972.02;;;23.48;24.44
34658;BME280;20865;43.312;27.152;2023-04-09T10:07:05;100980.13;;;23.37;23.10
34658;BME280;20865;43.312;27.152;2023-04-09T10:09:34;100970.63;;;22.98;23.37
34658;BME280;20865;43.312;27.152;2023-04-09T10:12:00;100978.00;;;23.22;24.01
34658;BME280;20865;43.312;27.152;2023-04-09T10:14:29;100970.59;;;23.24;23.40
34658;BME280;20865;43.312;27.152;2023-04-09T10:16:56;100964.21;;;23.30;21.90
34658;BME280;20865;43.312;27.152;2023-04-09T10:19:23;100963.15;;;23.39;23.64
34658;BME280;20865;43.312;27.152;2023-04-09T10:21:55;100962.89;;;23.05;24.03
34658;BME280;20865;43.312;27.152;2023-04-09T10:24:21;100959.27;;;23.04;22.82
34658;BME280;20865;43.312;27.152;2023-04-09T10:26:49;100963.99;;;23.52;22.78
34658;BME280;20865;43.312;27.152;2023-04-09T10:29:17;100958.39;;;23.29;21.87
34658;BME280;20865;43.312;27.152;2023-04-09T10:34:19;100947.13;;;23.03;20.37
34658;BME280;20865;43.312;27.152;2023-04-09T10:36:48;100944.05;;;23.70;22.36
34658;BME280;20865;43.312;27.152;2023-04-09T10:39:15;100960.54;;;23.19;22.30
34658;BME280;20865;43.312;27.152;2023-04-09T10:41:42;100945.06;;;23.06;21.57
34658;BME280;20865;43.312;27.152;2023-04-09T10:44:28;100945.55;;;23.56;22.12
34658;BME280;20865;43.312;27.152;2023-04-09T10:46:41;100943.65;;;23.82;20.99
34658;BME280;20865;43.312;27.152;2023-04-09T10:49:16;100942.42;;;23.86;22.08
34658;BME280;20865;43.312;27.152;2023-04-09T10:51:47;100941.47;;;23.74;21.78
34658;BME280;20865;43.312;27.152;2023-04-09T10:57:23;100930.63;;;23.48;22.12
34658;BME280;20865;43.312;27.152;2023-04-09T10:59:30;100931.27;;;23.52;22.60
34658;BME280;20865;43.312;27.152;2023-04-09T11:01:57;100932.73;;;23.82;23.57
34658;BME280;20865;43.312;27.152;2023-04-09T11:04:26;100930.33;;;23.59;22.69
34658;BME280;20865;43.312;27.152;2023-04-09T11:06:52;100922.05;;;23.79;22.87
34658;BME280;20865;43.312;27.152;2023-04-09T11:09:20;100922.16;;;23.40;23.57
34658;BME280;20865;43.312;27.152;2023-04-09T11:11:53;100920.61;;;22.99;24.75
34658;BME280;20865;43.312;27.152;2023-04-09T11:14:22;100914.80;;;23.35;25.31
34658;BME280;20865;43.312;27.152;2023-04-09T11:16:50;100925.72;;;23.53;24.83
34658;BME280;20865;43.312;27.152;2023-04-09T11:19:17;100920.37;;;23.52;24.70
34658;BME280;20865;43.312;27.152;2023-04-09T11:21:44;100920.45;;;23.26;25.10
34658;BME280;20865;43.312;27.152;2023-04-09T11:24:11;100911.70;;;23.71;24.80
34658;BME280;20865;43.312;27.152;2023-04-09T11:26:38;100909.45;;;23.89;24.99
34658;BME280;20865;43.312;27.152;2023-04-09T11:29:05;100907.09;;;23.90;24.39
34658;BME280;20865;43.312;27.152;2023-04-09T11:31:34;100911.23;;;23.71;24.36
34658;BME280;20865;43.312;27.152;2023-04-09T11:34:02;100910.09;;;23.68;24.62
34658;BME280;20865;43.312;27.152;2023-04-09T11:36:29;100900.03;;;23.14;25.00
34658;BME280;20865;43.312;27.152;2023-04-09T11:38:56;100902.69;;;23.76;24.54
34658;BME280;20865;43.312;27.152;2023-04-09T11:41:36;100892.83;;;23.92;23.91
34658;BME280;20865;43.312;27.152;2023-04-09T11:44:04;100892.50;;;23.72;24.39
34658;BME280;20865;43.312;27.152;2023-04-09T11:46:31;100882.92;;;23.48;24.54
34658;BME280;20865;43.312;27.152;2023-04-09T11:48:58;100877.64;;;23.76;24.35
34658;BME280;20865;43.312;27.152;2023-04-09T11:51:26;100870.59;;;23.80;24.29
34658;BME280;20865;43.312;27.152;2023-04-09T11:53:53;100863.28;;;23.38;24.74
34658;BME280;20865;43.312;27.152;2023-04-09T11:56:20;100862.95;;;22.80;24.67
34658;BME280;20865;43.312;27.152;2023-04-09T11:58:47;100869.16;;;23.50;24.14
34658;BME280;20865;43.312;27.152;2023-04-09T12:01:14;100862.31;;;23.87;25.09
34658;BME280;20865;43.312;27.152;2023-04-09T12:03:41;100858.91;;;24.13;23.86
34658;BME280;20865;43.312;27.152;2023-04-09T12:06:08;100857.81;;;24.15;22.50
34658;BME280;20865;43.312;27.152;2023-04-09T12:08:35;100860.95;;;24.33;23.25
34658;BME280;20865;43.312;27.152;2023-04-09T12:11:09;100853.46;;;24.48;22.66
34658;BME280;20865;43.312;27.152;2023-04-09T12:13:36;100858.24;;;24.39;22.72
34658;BME280;20865;43.312;27.152;2023-04-09T12:16:04;100850.87;;;24.22;22.21
34658;BME280;20865;43.312;27.152;2023-04-09T12:18:34;100849.41;;;24.24;22.62
34658;BME280;20865;43.312;27.152;2023-04-09T12:20:59;100845.66;;;24.19;22.88
34658;BME280;20865;43.312;27.152;2023-04-09T12:23:27;100840.61;;;24.32;22.54
34658;BME280;20865;43.312;27.152;2023-04-09T12:25:56;100838.94;;;24.12;21.81
34658;BME280;20865;43.312;27.152;2023-04-09T12:28:26;100838.92;;;24.01;22.51
34658;BME280;20865;43.312;27.152;2023-04-09T12:30:54;100834.88;;;24.18;23.06
34658;BME280;20865;43.312;27.152;2023-04-09T12:33:21;100837.27;;;24.39;22.67
34658;BME280;20865;43.312;27.152;2023-04-09T12:35:48;100837.02;;;24.31;22.52
34658;BME280;20865;43.312;27.152;2023-04-09T12:38:15;100823.98;;;24.23;22.71
34658;BME280;20865;43.312;27.152;2023-04-09T12:40:41;100814.70;;;24.37;22.96
34658;BME280;20865;43.312;27.152;2023-04-09T12:43:09;100819.75;;;24.25;23.25
34658;BME280;20865;43.312;27.152;2023-04-09T12:45:36;100816.64;;;24.30;23.08
34658;BME280;20865;43.312;27.152;2023-04-09T12:48:03;100812.80;;;24.27;23.01
34658;BME280;20865;43.312;27.152;2023-04-09T12:50:31;100815.91;;;24.16;22.40
34658;BME280;20865;43.312;27.152;2023-04-09T12:52:58;100813.87;;;23.96;22.80
34658;BME280;20865;43.312;27.152;2023-04-09T12:55:25;100806.20;;;24.12;23.30
34658;BME280;20865;43.312;27.152;2023-04-09T12:57:52;100804.58;;;24.04;22.99
34658;BME280;20865;43.312;27.152;2023-04-09T13:00:19;100794.93;;;24.34;23.08